< < Back
Terminal Aerodrome Forecast


Current Version              Previous Versions:   1  2  3  4  5  6  7  8  9  

Terminal Aerodrome Forecast

290
FTUS44 KBMX 201800 AAA
TAFANB
TAF AMD
KANB 201850Z 2019/2118 23005KT P6SM TS BKN040CB BKN050 BKN110
     FM201930 25007KT P6SM SCT035
     FM210100 00000KT P6SM SKC
     FM211500 26004KT P6SM FEW045=

Latest METAR

986
SAUS70 KWBC 202000 RRE
MTRANB
METAR KANB 201953Z AUTO 00000KT 10SM VCTS FEW044 FEW050 SCT070 28/21
A3005 RMK AO2 RAE04 TSE00B01E27B28E44 SLP167 P0000
T02830206


USA.gov is the U.S. government's official web portal to all federal, state and local government web resources and services.